Terminal Aerodrome Forecast
Issued by NWS

Home | Current Version | Previous Version | Text Only | Print | Product List | Glossary On
Versions: 1 2 3 4 5 6 7 8 9 10 11 12 13 14 15 16
659
FTUS45 KTFX 090547
TAFGTF
TAF
KGTF 090547Z 0906/1006 VRB05KT 5SM -SN OVC025
     FM091200 VRB04KT 2SM -SN BKN008 OVC015
     FM092100 06005KT P6SM VCSH SCT015 OVC030
     FM100400 05005KT 5SM -SN OVC020=

USA.gov is the U.S. government's official web portal to all federal, state and local government web resources and services.